Latest Weather Observations for Yunta

IDS60801

Issued at 2:21 pm CST Tuesday 19 June 2018 (issued every 10 minutes, with the page automatically refreshed every 10 minutes)

About weather observations | Map of weather stations | Latest weather observations for SA | Other Formats
Station Details ID: 020062 Name: YUNTA AIRSTRIP Lat: -32.57 Lon: 139.56 Height: 300.0 m
Data from the previous 72 hours. | See also: Recent months at Yunta
Date/Time
CST
Temp
°C
App
Temp
°C
Dew
Point
°C
Rel
Hum
%
Delta-T
°C
Wind Press
QNH
hPa
Press
MSL
hPa
Rain since
9am
mm
Dir  Spd
km/h
Gust
km/h
Spd
kts
Gust
kts
19/02:00pm 10.3 5.9 0.3 50 4.1 N 13 19 7 10 1024.4 1024.8 0.0
19/01:30pm 10.4 5.3 0.7 51 4.0 NNW 17 22 9 12 1024.8 1025.2 0.0
19/01:00pm 10.3 5.2 0.9 52 3.9 NNW 17 24 9 13 1025.4 1025.8 0.0
19/12:30pm 10.0 4.9 0.9 53 3.8 NNW 17 24 9 13 1025.9 1026.3 0.0
19/12:00pm 10.0 4.4 1.4 55 3.6 N 20 26 11 14 1026.4 1026.7 0.0
19/11:30am 9.8 4.2 1.5 56 3.5 N 20 26 11 14 1026.7 1027.0 0.0
19/11:00am 9.9 4.9 1.5 56 3.6 N 17 22 9 12 1027.0 1027.3 0.0
19/10:30am 9.0 5.2 1.9 61 3.0 N 11 20 6 11 1027.3 1027.7 0.0
19/10:00am 8.2 6.2 2.4 67 2.5 NNW 2 6 1 3 1027.5 1027.9 0.0
19/09:30am 6.2 4.1 1.5 72 1.9 NNE 2 4 1 2 1027.7 1028.1 0.0
19/09:00am 3.5 1.2 0.7 82 1.1 N 2 4 1 2 1027.7 1028.1 0.2
19/08:30am 1.4 -1.4 -0.2 89 0.6 ENE 4 6 2 3 1027.4 1027.8 0.2
19/08:00am -0.8 -4.2 -2.1 91 0.4 NNE 6 7 3 4 1027.6 1028.0 0.0
19/07:30am -3.1 -7.0 -4.2 92 0.2 N 7 9 4 5 1027.7 1028.1 0.0
19/07:00am -3.1 -6.8 -4.2 92 0.2 N 6 7 3 4 1027.6 1028.0 0.0
19/06:30am -3.6 -7.0 -4.9 91 0.3 ENE 4 6 2 3 1027.4 1027.8 0.0
19/06:00am -3.4 -7.1 -4.7 91 0.3 NNE 6 7 3 4 1027.4 1027.8 0.0
19/05:30am -2.5 -5.7 -3.8 91 0.3 NNW 4 6 2 3 1027.4 1027.8 0.0
19/05:00am -3.2 -6.9 -4.5 91 0.3 N 6 7 3 4 1027.5 1027.9 0.0
19/04:30am -3.5 -6.5 -4.8 91 0.3 N 2 4 1 2 1027.3 1027.7 0.0
19/04:00am -3.3 -5.9 -4.7 90 0.3 CALM 0 0 0 0 1027.4 1027.8 0.0
19/03:30am -3.2 -5.8 -4.6 90 0.3 CALM 0 0 0 0 1027.2 1027.6 0.0
19/03:00am -2.8 -5.3 -4.4 89 0.4 CALM 0 0 0 0 1027.2 1027.6 0.0
19/02:30am -2.3 -4.8 -3.9 89 0.4 CALM 0 2 0 1 1027.2 1027.6 0.0
19/02:00am -2.1 -4.5 -3.5 90 0.4 CALM 0 4 0 2 1027.5 1027.9 0.0
19/01:30am -1.6 -5.1 -3.0 90 0.4 NNE 6 7 3 4 1027.4 1027.8 0.0
19/01:00am -1.2 -4.3 -2.8 89 0.5 N 4 6 2 3 1027.4 1027.8 0.0
19/12:30am -1.0 -5.0 -2.6 89 0.5 N 9 13 5 7 1027.7 1028.1 0.0
19/12:00am -1.3 -4.4 -3.0 88 0.5 NNW 4 6 2 3 1028.4 1028.8 0.0
 
Date/Time
CST
Temp
°C
App
Temp
°C
Dew
Point
°C
Rel
Hum
%
Delta-T
°C
Wind Press
QNH
hPa
Press
MSL
hPa
Rain since
9am
mm
Dir  Spd
km/h
Gust
km/h
Spd
kts
Gust
kts
18/11:30pm -0.8 -3.2 -2.8 86 0.6 CALM 0 2 0 1 1028.3 1028.7 0.0
18/11:00pm 0.2 -2.0 -1.7 87 0.7 CALM 0 2 0 1 1028.2 1028.6 0.0
18/10:30pm -0.1 -2.4 -2.2 86 0.7 CALM 0 0 0 0 1028.1 1028.5 0.0
18/10:00pm 0.4 -2.2 -2.0 84 0.9 WSW 2 4 1 2 1027.9 1028.3 0.0
18/09:30pm 1.2 -1.0 -1.5 82 1.0 CALM 0 0 0 0 1027.6 1028.0 0.0
18/09:00pm 1.9 -0.2 -0.8 82 1.0 CALM 0 0 0 0 1027.4 1027.8 0.0
18/08:30pm 2.6 0.5 -0.8 78 1.2 CALM 0 2 0 1 1027.6 1028.0 0.0
18/08:00pm 2.8 0.7 -0.5 79 1.2 CALM 0 0 0 0 1027.6 1028.0 0.0
18/07:30pm 3.8 1.8 -0.2 75 1.5 CALM 0 0 0 0 1027.7 1028.1 0.0
18/07:00pm 5.0 3.1 0.4 72 1.8 CALM 0 4 0 2 1027.6 1028.0 0.0
18/06:30pm 6.8 3.8 0.9 66 2.4 SE 6 6 3 3 1027.6 1028.0 0.0
18/06:00pm 7.3 4.1 1.0 64 2.5 SE 7 9 4 5 1027.5 1027.9 0.0
18/05:30pm 8.7 5.6 1.4 60 3.0 SSE 7 9 4 5 1027.6 1028.0 0.0
18/05:00pm 10.2 6.8 1.6 55 3.7 SSE 9 13 5 7 1027.6 1028.0 0.0
18/04:30pm 10.9 6.7 1.4 52 4.0 SSE 13 19 7 10 1027.6 1028.0 0.0
18/04:00pm 11.4 7.5 1.4 50 4.3 SSE 11 17 6 9 1027.6 1028.0 0.0
18/03:30pm 11.6 7.3 1.3 49 4.4 S 13 20 7 11 1027.4 1027.8 0.0
18/03:00pm 11.8 7.6 1.4 49 4.4 S 13 19 7 10 1027.1 1027.4 0.0
18/02:30pm 11.7 7.1 1.6 50 4.3 S 15 22 8 12 1027.2 1027.6 0.0
18/02:00pm 11.4 7.2 1.4 50 4.3 S 13 22 7 12 1027.6 1028.0 0.0
18/01:30pm 11.2 6.5 0.9 49 4.3 S 15 22 8 12 1027.8 1028.2 0.0
18/01:00pm 11.6 6.3 1.8 51 4.2 SSE 19 24 10 13 1027.9 1028.3 0.0
18/12:30pm 10.7 5.3 1.5 53 3.9 S 19 24 10 13 1028.3 1028.7 0.0
18/12:00pm 10.3 5.7 1.4 54 3.7 SSE 15 22 8 12 1028.9 1029.3 0.0
18/11:30am 10.0 5.9 2.1 58 3.4 SSE 13 20 7 11 1029.4 1029.8 0.0
18/11:00am 10.4 6.0 2.5 58 3.4 SSE 15 20 8 11 1030.1 1030.5 0.0
18/10:30am 9.5 5.0 2.1 60 3.1 S 15 22 8 12 1030.3 1030.7 0.0
18/10:00am 8.9 4.6 3.3 68 2.4 SSW 15 22 8 12 1030.1 1030.5 0.0
18/09:30am 8.2 4.0 3.9 74 1.9 SSW 15 20 8 11 1030.0 1030.4 0.0
18/09:00am 7.2 4.2 4.0 80 1.4 SSW 9 15 5 8 1030.0 1030.4 0.0
18/08:30am 5.6 3.0 3.4 86 0.9 SW 6 9 3 5 1029.9 1030.2 0.0
18/08:00am 3.9 1.0 2.4 90 0.6 SW 7 9 4 5 1029.7 1030.0 0.0
18/07:30am 2.2 -1.0 0.7 90 0.6 SW 7 7 4 4 1028.9 1029.3 0.0
18/07:00am 2.9 -0.1 1.1 88 0.7 SSW 6 7 3 4 1028.2 1028.6 0.0
18/06:30am 3.6 0.2 1.6 87 0.8 SSW 9 9 5 5 1027.9 1028.3 0.0
18/06:00am 4.4 0.7 2.1 85 0.9 SSW 11 15 6 8 1027.7 1028.1 0.0
18/05:30am 4.6 0.5 2.0 83 1.0 SSW 13 15 7 8 1027.7 1028.1 0.0
18/05:00am 5.2 1.8 2.0 80 1.3 SSW 9 11 5 6 1027.7 1028.1 0.0
18/04:30am 6.5 3.6 2.6 76 1.6 SSW 7 11 4 6 1027.6 1028.0 0.0
18/04:00am 7.3 3.3 2.8 73 1.9 SSW 13 19 7 10 1027.8 1028.2 0.0
18/03:30am 7.0 4.2 3.3 77 1.6 S 7 11 4 6 1027.7 1028.1 0.0
18/03:00am 6.5 3.9 3.1 79 1.4 SSW 6 9 3 5 1027.8 1028.2 0.0
18/02:30am 6.1 3.5 3.1 81 1.3 SSW 6 7 3 4 1027.7 1028.1 0.0
18/02:00am 5.6 2.8 2.9 83 1.1 SSW 7 9 4 5 1027.9 1028.3 0.0
18/01:30am 5.5 2.2 2.7 82 1.2 SSW 9 9 5 5 1027.6 1028.0 0.0
18/01:00am 6.4 3.6 3.0 79 1.4 SSW 7 9 4 5 1027.8 1028.2 0.0
18/12:30am 7.5 3.7 3.7 77 1.6 SSW 13 17 7 9 1027.9 1028.3 0.0
18/12:00am 7.3 4.3 3.9 79 1.5 SSW 9 15 5 8 1028.1 1028.5 0.0
 
Date/Time
CST
Temp
°C
App
Temp
°C
Dew
Point
°C
Rel
Hum
%
Delta-T
°C
Wind Press
QNH
hPa
Press
MSL
hPa
Rain since
9am
mm
Dir  Spd
km/h
Gust
km/h
Spd
kts
Gust
kts
17/11:30pm 7.0 3.6 3.8 80 1.4 SSW 11 15 6 8 1028.2 1028.6 0.0
17/11:00pm 6.3 3.2 3.5 82 1.2 SSW 9 13 5 7 1028.4 1028.8 0.0
17/10:30pm 6.5 2.5 3.1 79 1.4 SSW 13 17 7 9 1028.3 1028.7 0.0
17/10:00pm 7.3 3.0 3.5 77 1.6 SW 15 22 8 12 1028.0 1028.4 0.0
17/09:30pm 7.9 3.3 3.6 74 1.9 SSW 17 22 9 12 1027.9 1028.3 0.0
17/09:00pm 8.3 3.7 3.9 74 1.9 SSW 17 22 9 12 1027.9 1028.3 0.0
17/08:30pm 8.5 4.3 3.8 72 2.1 SSW 15 19 8 10 1027.8 1028.2 0.0
17/08:00pm 9.2 4.7 4.2 71 2.2 SSW 17 24 9 13 1027.6 1028.0 0.0
17/07:30pm 8.9 4.4 4.1 72 2.1 SSW 17 24 9 13 1027.5 1027.9 0.0
17/07:00pm 9.2 4.8 4.6 73 2.1 SSW 17 20 9 11 1027.3 1027.7 0.0
17/06:30pm 9.7 5.2 4.1 68 2.5 SSW 17 22 9 12 1027.1 1027.4 0.0
17/06:00pm 10.9 5.6 3.0 58 3.5 SSW 20 30 11 16 1026.6 1026.9 0.0
17/05:30pm 10.7 6.3 2.5 57 3.6 SSW 15 19 8 10 1026.4 1026.7 0.0
17/05:00pm 11.7 5.1 1.9 51 4.3 SW 26 35 14 19 1026.1 1026.4 0.0
17/04:30pm 12.3 5.7 2.2 50 4.4 SW 26 35 14 19 1025.7 1026.1 0.0
17/04:00pm 12.8 5.9 2.6 50 4.5 SW 28 35 15 19 1025.5 1025.9 0.0
17/03:30pm 13.0 7.3 2.8 50 4.5 SSW 22 28 12 15 1025.3 1025.7 0.0
17/03:00pm 13.2 6.7 2.4 48 4.8 SW 26 39 14 21 1025.2 1025.6 0.0
17/02:30pm 12.5 6.3 2.4 50 4.4 SSW 24 32 13 17 1025.2 1025.6 0.0
17/02:00pm 12.9 7.2 2.7 50 4.6 SSW 22 32 12 17 1025.3 1025.7 0.0
17/01:30pm 12.5 6.0 2.9 52 4.3 SSW 26 35 14 19 1025.5 1025.9 0.0
17/01:00pm 12.2 5.7 2.6 52 4.3 SW 26 37 14 20 1025.8 1026.2 0.0
17/12:30pm 11.9 5.9 3.2 55 3.9 SSW 24 33 13 18 1026.1 1026.4 0.0
17/12:00pm 11.7 4.8 2.7 54 4.0 SSW 28 35 15 19 1026.3 1026.6 0.0
17/11:30am 11.4 3.9 3.2 57 3.6 SSW 32 44 17 24 1026.8 1027.1 0.0
17/11:00am 11.1 4.6 2.4 55 3.8 SSW 26 37 14 20 1027.1 1027.4 0.0
17/10:30am 10.8 4.7 2.9 58 3.5 SSW 24 32 13 17 1027.2 1027.6 0.0
17/10:00am 10.1 4.5 3.2 62 3.0 SSW 22 30 12 16 1027.2 1027.6 0.0
17/09:30am 9.3 4.1 3.5 67 2.5 SW 20 33 11 18 1027.0 1027.3 0.0
17/09:00am 8.1 3.1 3.4 72 2.0 SW 19 24 10 13 1026.8 1027.1 0.6
17/08:30am 6.5 2.5 3.1 79 1.4 SW 13 19 7 10 1026.6 1026.9 0.6
17/08:00am 5.0 0.5 2.2 82 1.1 WSW 15 19 8 10 1026.3 1026.6 0.6
17/07:30am 3.9 -1.1 1.6 85 0.9 WSW 17 20 9 11 1025.7 1026.1 0.6
17/07:00am 3.8 -0.8 1.4 84 1.0 WSW 15 19 8 10 1025.5 1025.9 0.6
17/06:30am 4.5 -0.4 1.9 83 1.0 SW 17 22 9 12 1025.2 1025.6 0.6
17/06:00am 4.1 -0.1 1.6 84 1.0 SW 13 19 7 10 1025.0 1025.4 0.6
17/05:30am 3.5 0.4 1.1 84 0.9 WSW 7 9 4 5 1024.8 1025.2 0.6
17/05:00am 4.2 0.0 1.4 82 1.1 SW 13 19 7 10 1024.6 1025.0 0.6
17/04:30am 3.4 -0.5 1.0 84 0.9 SW 11 15 6 8 1024.4 1024.8 0.6
17/04:00am 3.6 -1.1 1.0 83 1.0 WSW 15 17 8 9 1024.3 1024.6 0.6
17/03:30am 3.6 -1.1 1.2 84 0.9 WSW 15 17 8 9 1024.3 1024.6 0.6
17/03:00am 3.8 -1.2 1.4 84 0.9 WSW 17 20 9 11 1024.2 1024.5 0.6
17/02:30am 4.0 -1.0 1.5 84 1.0 WSW 17 20 9 11 1024.4 1024.8 0.6
17/02:00am 3.6 0.1 1.3 85 0.9 W 9 13 5 7 1024.5 1024.9 0.6
17/01:30am 4.4 -0.5 2.3 86 0.9 WSW 17 20 9 11 1024.4 1024.8 0.6
17/01:00am 3.7 0.6 1.6 86 0.8 WNW 7 11 4 6 1024.6 1025.0 0.6
17/12:30am 3.9 0.8 1.4 84 1.0 WNW 7 9 4 5 1024.6 1025.0 0.6
17/12:00am 5.2 1.5 2.4 82 1.1 WSW 11 15 6 8 1024.5 1024.9 0.6
 
Date/Time
CST
Temp
°C
App
Temp
°C
Dew
Point
°C
Rel
Hum
%
Delta-T
°C
Wind Press
QNH
hPa
Press
MSL
hPa
Rain since
9am
mm
Dir  Spd
km/h
Gust
km/h
Spd
kts
Gust
kts
16/11:30pm 5.2 1.9 2.6 83 1.1 WSW 9 13 5 7 1024.5 1024.9 0.6
16/11:00pm 5.4 1.8 2.8 83 1.1 SW 11 15 6 8 1024.4 1024.8 0.6
16/10:30pm 5.8 2.3 3.3 84 1.1 SW 11 17 6 9 1024.3 1024.6 0.6
16/10:00pm 6.2 2.7 3.5 83 1.2 SW 11 15 6 8 1024.0 1024.3 0.6
16/09:30pm 7.0 2.8 3.8 80 1.4 SW 15 20 8 11 1023.6 1023.9 0.6
16/09:00pm 8.0 1.4 4.2 77 1.7 SW 28 39 15 21 1023.6 1023.9 0.6
16/08:30pm 7.7 1.7 5.5 86 1.0 SW 26 37 14 20 1023.2 1023.5 0.6
16/08:00pm 8.3 2.7 5.6 83 1.2 WSW 24 37 13 20 1022.9 1023.2 0.2
16/07:30pm 8.5 3.2 4.9 78 1.6 WSW 22 37 12 20 1022.7 1023.0 0.2
16/07:00pm 8.7 2.6 4.7 76 1.8 WSW 26 37 14 20 1022.5 1022.8 0.2
16/06:30pm 9.0 3.5 4.0 71 2.2 WSW 22 35 12 19 1022.1 1022.5 0.2
16/06:00pm 9.6 2.9 3.8 67 2.6 WSW 28 37 15 20 1021.6 1022.0 0.2
16/05:30pm 9.3 3.0 3.7 68 2.5 W 26 33 14 18 1021.4 1021.7 0.2
16/05:00pm 9.4 3.9 4.0 69 2.4 WSW 22 32 12 17 1021.4 1021.7 0.2
16/04:30pm 9.5 1.7 4.7 72 2.2 WSW 35 52 19 28 1021.5 1021.9 0.2
16/04:00pm 11.0 3.6 4.0 62 3.2 WSW 32 39 17 21 1020.9 1021.2 0.2
16/03:30pm 10.4 3.0 3.9 64 2.9 WSW 32 50 17 27 1020.7 1021.0 0.2
16/03:00pm 11.7 6.5 5.3 65 3.0 WSW 22 32 12 17 1020.7 1021.0 0.2
16/02:30pm 11.6 5.3 3.9 59 3.5 WSW 26 35 14 19 1020.6 1020.9 0.2

Other Formats:

Comma delimited format used in spreadsheet applications
http://www.bom.gov.au/fwo/IDS60801/IDS60801.94684.axf

JavaScript Object Notation format (JSON) in row-major order
http://www.bom.gov.au/fwo/IDS60801/IDS60801.94684.json